Decoded Metar for LFBE (BERGERAC in FRANCE) (IATA:EGC) | Meteo·Mobile Aviation Weather
aviador You're here:

LFBE Decoded Metar

BERGERAC in FRANCE
Report Time2019-02-21 23:30:00
UTC Time2019-02-21 23:46:23
Flight Rules vfr VFR
Wind080° at 03 kt
W.Decomp.*RWY 10: 2.8 kt HW 1 kt LCW
W.Rank080° ranks 6
Current wind is below 080° avg. (3.7)
Visibility9999 m
Phenomena:N/A
Clouds:N/A
Expected CloudBase > 400 ft AGL from Temp-Dew spread
CeilingNone
Temp02°C (ISA -13)
Dew Point01°C (93% RH)
AAT-0.9°C
QNH1031 hPa
Density Alt-1,890 ft
Elevation171 ft
Report Wrong Elevation
Raw Report
LFBE 212330Z AUTO 08003KT CAVOK 02/01 Q1031=

Extra information for LFBE:More info

Metar Taf Metar & Taf Last 4 Metars F.Rules Stats Wind Profile Meteogram Temp Stats Airport Information Weather charts Add Link Nearby VenuesMetar ALERT Operation Metar Decoded Social comments